sensor_id;sensor_type;location;lat;lon;timestamp;temperature;humidity
6954;DHT22;3516;47.980;8.808;2024-01-30T04:56:03;-2.00;99.90
6954;DHT22;3516;47.980;8.808;2024-01-30T04:58:30;-2.20;99.90
6954;DHT22;3516;47.980;8.808;2024-01-30T05:00:57;-2.00;99.90
6954;DHT22;3516;47.980;8.808;2024-01-30T05:03:23;-2.10;99.90
6954;DHT22;3516;47.980;8.808;2024-01-30T05:05:50;-2.10;99.90
6954;DHT22;3516;47.980;8.808;2024-01-30T05:08:17;-2.10;99.90
6954;DHT22;3516;47.980;8.808;2024-01-30T05:10:43;-2.10;99.90
6954;DHT22;3516;47.980;8.808;2024-01-30T05:13:11;-2.10;99.90
6954;DHT22;3516;47.980;8.808;2024-01-30T05:15:39;-2.10;99.90
6954;DHT22;3516;47.980;8.808;2024-01-30T05:18:05;-2.10;99.90
6954;DHT22;3516;47.980;8.808;2024-01-30T05:20:32;-1.90;99.90
6954;DHT22;3516;47.980;8.808;2024-01-30T05:22:58;-2.20;99.90
6954;DHT22;3516;47.980;8.808;2024-01-30T05:25:25;-2.20;99.90
6954;DHT22;3516;47.980;8.808;2024-01-30T05:27:51;-2.20;99.90
6954;DHT22;3516;47.980;8.808;2024-01-30T05:30:19;-2.20;99.90
6954;DHT22;3516;47.980;8.808;2024-01-30T05:32:46;-2.20;99.90
6954;DHT22;3516;47.980;8.808;2024-01-30T05:35:12;-2.20;99.90
6954;DHT22;3516;47.980;8.808;2024-01-30T05:37:39;-2.20;99.90
6954;DHT22;3516;47.980;8.808;2024-01-30T05:40:06;-2.20;99.90
6954;DHT22;3516;47.980;8.808;2024-01-30T05:42:33;-2.20;99.90
6954;DHT22;3516;47.980;8.808;2024-01-30T05:44:59;-2.20;99.90
6954;DHT22;3516;47.980;8.808;2024-01-30T05:47:27;-2.30;99.90
6954;DHT22;3516;47.980;8.808;2024-01-30T05:49:54;-2.30;99.90
6954;DHT22;3516;47.980;8.808;2024-01-30T05:52:20;-2.30;99.90
6954;DHT22;3516;47.980;8.808;2024-01-30T05:54:47;-2.30;99.90
6954;DHT22;3516;47.980;8.808;2024-01-30T05:57:13;-2.30;99.90
6954;DHT22;3516;47.980;8.808;2024-01-30T05:59:40;-2.30;99.90
6954;DHT22;3516;47.980;8.808;2024-01-30T06:02:06;-2.20;99.90
6954;DHT22;3516;47.980;8.808;2024-01-30T06:04:34;-2.20;99.90
6954;DHT22;3516;47.980;8.808;2024-01-30T06:07:01;-2.10;99.90
6954;DHT22;3516;47.980;8.808;2024-01-30T06:09:28;-2.10;99.90
6954;DHT22;3516;47.980;8.808;2024-01-30T06:11:55;-2.10;99.90
6954;DHT22;3516;47.980;8.808;2024-01-30T06:14:21;-2.10;99.90
6954;DHT22;3516;47.980;8.808;2024-01-30T06:16:48;-2.10;99.90
6954;DHT22;3516;47.980;8.808;2024-01-30T06:19:14;-2.10;99.90
6954;DHT22;3516;47.980;8.808;2024-01-30T06:21:42;-2.10;99.90
6954;DHT22;3516;47.980;8.808;2024-01-30T06:24:09;-2.10;99.90
6954;DHT22;3516;47.980;8.808;2024-01-30T06:26:35;-2.10;99.90
6954;DHT22;3516;47.980;8.808;2024-01-30T06:29:02;-2.10;99.90
6954;DHT22;3516;47.980;8.808;2024-01-30T06:31:28;-2.10;99.90
6954;DHT22;3516;47.980;8.808;2024-01-30T06:33:55;-2.10;99.90
6954;DHT22;3516;47.980;8.808;2024-01-30T06:36:21;-2.10;99.90
6954;DHT22;3516;47.980;8.808;2024-01-30T06:38:49;-2.10;99.90
6954;DHT22;3516;47.980;8.808;2024-01-30T06:41:16;-2.10;99.90
6954;DHT22;3516;47.980;8.808;2024-01-30T06:43:42;-2.10;99.90
6954;DHT22;3516;47.980;8.808;2024-01-30T06:46:10;-2.10;99.90
6954;DHT22;3516;47.980;8.808;2024-01-30T06:48:37;-2.00;99.90
6954;DHT22;3516;47.980;8.808;2024-01-30T06:51:05;-2.10;99.90
6954;DHT22;3516;47.980;8.808;2024-01-30T06:53:32;-2.00;99.90
6954;DHT22;3516;47.980;8.808;2024-01-30T06:56:00;-2.00;99.90
6954;DHT22;3516;47.980;8.808;2024-01-30T06:58:26;-2.00;99.90
6954;DHT22;3516;47.980;8.808;2024-01-30T07:00:53;-2.00;99.90
6954;DHT22;3516;47.980;8.808;2024-01-30T07:03:20;-2.00;99.90
6954;DHT22;3516;47.980;8.808;2024-01-30T07:05:47;-1.90;99.90
6954;DHT22;3516;47.980;8.808;2024-01-30T07:08:14;-1.90;99.90
6954;DHT22;3516;47.980;8.808;2024-01-30T07:10:42;-1.80;99.90
6954;DHT22;3516;47.980;8.808;2024-01-30T07:13:10;-1.80;99.90
6954;DHT22;3516;47.980;8.808;2024-01-30T07:15:37;-1.70;99.90
6954;DHT22;3516;47.980;8.808;2024-01-30T07:18:06;-1.60;99.90
6954;DHT22;3516;47.980;8.808;2024-01-30T07:20:33;-1.60;99.90
6954;DHT22;3516;47.980;8.808;2024-01-30T07:23:00;-1.50;99.90
6954;DHT22;3516;47.980;8.808;2024-01-30T07:25:27;-1.40;99.90
6954;DHT22;3516;47.980;8.808;2024-01-30T07:27:55;-1.30;99.90
6954;DHT22;3516;47.980;8.808;2024-01-30T07:30:22;-1.20;99.90
6954;DHT22;3516;47.980;8.808;2024-01-30T07:32:49;-1.10;99.90
6954;DHT22;3516;47.980;8.808;2024-01-30T07:35:16;-1.00;99.90
6954;DHT22;3516;47.980;8.808;2024-01-30T07:37:42;-0.90;99.90
6954;DHT22;3516;47.980;8.808;2024-01-30T07:40:09;-0.70;99.90
6954;DHT22;3516;47.980;8.808;2024-01-30T07:42:36;-0.60;99.90
6954;DHT22;3516;47.980;8.808;2024-01-30T07:45:02;-0.40;99.90
6954;DHT22;3516;47.980;8.808;2024-01-30T07:47:30;-0.20;99.90
6954;DHT22;3516;47.980;8.808;2024-01-30T07:49:57;0.00;99.90
6954;DHT22;3516;47.980;8.808;2024-01-30T07:52:23;0.30;99.90
6954;DHT22;3516;47.980;8.808;2024-01-30T07:54:50;0.30;99.90
6954;DHT22;3516;47.980;8.808;2024-01-30T07:57:17;0.70;99.90
6954;DHT22;3516;47.980;8.808;2024-01-30T07:59:43;0.90;99.90
6954;DHT22;3516;47.980;8.808;2024-01-30T08:02:10;1.10;99.90
6954;DHT22;3516;47.980;8.808;2024-01-30T08:04:38;1.20;99.90
6954;DHT22;3516;47.980;8.808;2024-01-30T08:07:04;1.20;99.90
6954;DHT22;3516;47.980;8.808;2024-01-30T08:09:31;1.30;99.90
6954;DHT22;3516;47.980;8.808;2024-01-30T08:11:57;1.30;99.90
6954;DHT22;3516;47.980;8.808;2024-01-30T08:14:24;1.40;99.90
6954;DHT22;3516;47.980;8.808;2024-01-30T08:16:51;1.40;99.90
6954;DHT22;3516;47.980;8.808;2024-01-30T08:19:17;1.40;99.90
6954;DHT22;3516;47.980;8.808;2024-01-30T08:21:45;1.60;99.90
6954;DHT22;3516;47.980;8.808;2024-01-30T08:24:12;1.90;99.90
6954;DHT22;3516;47.980;8.808;2024-01-30T08:26:38;2.30;99.90
6954;DHT22;3516;47.980;8.808;2024-01-30T08:29:05;2.80;99.90
6954;DHT22;3516;47.980;8.808;2024-01-30T08:31:31;3.50;99.90
6954;DHT22;3516;47.980;8.808;2024-01-30T08:33:58;4.20;99.90
6954;DHT22;3516;47.980;8.808;2024-01-30T08:36:24;4.90;99.90
6954;DHT22;3516;47.980;8.808;2024-01-30T08:38:52;5.70;99.90
6954;DHT22;3516;47.980;8.808;2024-01-30T08:41:19;6.40;99.90
6954;DHT22;3516;47.980;8.808;2024-01-30T08:43:46;7.20;99.90
6954;DHT22;3516;47.980;8.808;2024-01-30T08:46:12;7.80;99.90
6954;DHT22;3516;47.980;8.808;2024-01-30T08:48:39;8.30;99.90
6954;DHT22;3516;47.980;8.808;2024-01-30T08:51:05;8.70;99.90
6954;DHT22;3516;47.980;8.808;2024-01-30T08:53:33;9.20;99.90
6954;DHT22;3516;47.980;8.808;2024-01-30T08:56:02;9.60;99.90
6954;DHT22;3516;47.980;8.808;2024-01-30T08:58:28;10.00;99.90
6954;DHT22;3516;47.980;8.808;2024-01-30T09:00:55;10.20;99.90
6954;DHT22;3516;47.980;8.808;2024-01-30T09:03:21;10.30;99.90
6954;DHT22;3516;47.980;8.808;2024-01-30T09:05:48;10.40;99.90
6954;DHT22;3516;47.980;8.808;2024-01-30T09:08:14;10.50;99.90
6954;DHT22;3516;47.980;8.808;2024-01-30T09:10:41;10.50;99.90
6954;DHT22;3516;47.980;8.808;2024-01-30T09:13:09;10.30;99.90
6954;DHT22;3516;47.980;8.808;2024-01-30T09:15:35;10.00;99.90
6954;DHT22;3516;47.980;8.808;2024-01-30T09:18:02;9.50;99.90
6954;DHT22;3516;47.980;8.808;2024-01-30T09:20:28;9.40;99.90
6954;DHT22;3516;47.980;8.808;2024-01-30T09:22:55;9.10;99.90
6954;DHT22;3516;47.980;8.808;2024-01-30T09:25:21;9.10;99.90
6954;DHT22;3516;47.980;8.808;2024-01-30T09:27:48;9.30;99.90
6954;DHT22;3516;47.980;8.808;2024-01-30T09:30:16;9.80;99.90
6954;DHT22;3516;47.980;8.808;2024-01-30T09:32:43;10.40;99.90
6954;DHT22;3516;47.980;8.808;2024-01-30T09:35:10;10.70;99.90
6954;DHT22;3516;47.980;8.808;2024-01-30T09:37:36;10.80;99.90
6954;DHT22;3516;47.980;8.808;2024-01-30T09:40:03;10.90;99.90
6954;DHT22;3516;47.980;8.808;2024-01-30T09:42:33;10.80;99.90
6954;DHT22;3516;47.980;8.808;2024-01-30T09:45:00;10.50;99.90
6954;DHT22;3516;47.980;8.808;2024-01-30T09:47:31;10.20;99.90
6954;DHT22;3516;47.980;8.808;2024-01-30T09:49:57;9.70;99.90
6954;DHT22;3516;47.980;8.808;2024-01-30T09:52:25;9.20;99.90
6954;DHT22;3516;47.980;8.808;2024-01-30T09:54:51;8.70;99.90
6954;DHT22;3516;47.980;8.808;2024-01-30T09:57:18;8.20;99.90
6954;DHT22;3516;47.980;8.808;2024-01-30T09:59:46;7.70;99.90
6954;DHT22;3516;47.980;8.808;2024-01-30T10:02:12;7.20;99.90
6954;DHT22;3516;47.980;8.808;2024-01-30T10:04:40;6.80;99.90
6954;DHT22;3516;47.980;8.808;2024-01-30T10:07:07;6.50;99.90
6954;DHT22;3516;47.980;8.808;2024-01-30T10:09:34;6.40;99.90
6954;DHT22;3516;47.980;8.808;2024-01-30T10:12:01;6.20;99.90
6954;DHT22;3516;47.980;8.808;2024-01-30T10:14:29;6.10;99.90
6954;DHT22;3516;47.980;8.808;2024-01-30T10:16:55;6.00;99.90
6954;DHT22;3516;47.980;8.808;2024-01-30T10:19:23;5.90;99.90
6954;DHT22;3516;47.980;8.808;2024-01-30T10:21:51;5.90;99.90
6954;DHT22;3516;47.980;8.808;2024-01-30T10:24:18;5.90;99.90
6954;DHT22;3516;47.980;8.808;2024-01-30T10:26:45;5.90;99.90
6954;DHT22;3516;47.980;8.808;2024-01-30T10:29:11;5.90;99.90
6954;DHT22;3516;47.980;8.808;2024-01-30T10:31:38;5.90;99.90
6954;DHT22;3516;47.980;8.808;2024-01-30T10:34:04;6.00;99.90
6954;DHT22;3516;47.980;8.808;2024-01-30T10:36:31;6.00;99.90
6954;DHT22;3516;47.980;8.808;2024-01-30T10:39:02;6.10;99.90
6954;DHT22;3516;47.980;8.808;2024-01-30T10:41:31;6.10;99.90
6954;DHT22;3516;47.980;8.808;2024-01-30T10:44:02;6.20;99.90
6954;DHT22;3516;47.980;8.808;2024-01-30T10:46:30;6.10;99.90
6954;DHT22;3516;47.980;8.808;2024-01-30T10:48:58;6.10;99.90
6954;DHT22;3516;47.980;8.808;2024-01-30T10:51:25;6.10;99.90
6954;DHT22;3516;47.980;8.808;2024-01-30T10:53:52;6.20;99.90
6954;DHT22;3516;47.980;8.808;2024-01-30T10:56:21;6.30;99.90
6954;DHT22;3516;47.980;8.808;2024-01-30T10:58:48;6.30;99.90
6954;DHT22;3516;47.980;8.808;2024-01-30T11:01:15;6.40;99.90
6954;DHT22;3516;47.980;8.808;2024-01-30T11:03:42;6.40;99.90
6954;DHT22;3516;47.980;8.808;2024-01-30T11:06:10;6.40;99.90
6954;DHT22;3516;47.980;8.808;2024-01-30T11:08:37;6.40;99.90
6954;DHT22;3516;47.980;8.808;2024-01-30T11:11:04;6.50;99.90
6954;DHT22;3516;47.980;8.808;2024-01-30T11:13:35;6.50;99.90
6954;DHT22;3516;47.980;8.808;2024-01-30T11:16:02;6.60;99.90
6954;DHT22;3516;47.980;8.808;2024-01-30T11:18:29;6.70;99.90
6954;DHT22;3516;47.980;8.808;2024-01-30T11:20:55;6.70;99.90
6954;DHT22;3516;47.980;8.808;2024-01-30T11:23:22;6.70;99.90
6954;DHT22;3516;47.980;8.808;2024-01-30T11:25:49;6.80;99.90
6954;DHT22;3516;47.980;8.808;2024-01-30T11:28:18;6.90;99.90
6954;DHT22;3516;47.980;8.808;2024-01-30T11:30:46;7.00;99.90
6954;DHT22;3516;47.980;8.808;2024-01-30T11:33:26;7.10;99.90
6954;DHT22;3516;47.980;8.808;2024-01-30T11:35:56;7.20;99.90
6954;DHT22;3516;47.980;8.808;2024-01-30T11:38:23;7.40;99.90
6954;DHT22;3516;47.980;8.808;2024-01-30T11:40:51;7.50;99.90
6954;DHT22;3516;47.980;8.808;2024-01-30T11:43:19;7.70;99.90
6954;DHT22;3516;47.980;8.808;2024-01-30T11:45:47;7.80;99.90
6954;DHT22;3516;47.980;8.808;2024-01-30T11:48:13;8.00;99.90
6954;DHT22;3516;47.980;8.808;2024-01-30T11:50:40;8.10;99.90
6954;DHT22;3516;47.980;8.808;2024-01-30T11:53:06;8.20;99.90
6954;DHT22;3516;47.980;8.808;2024-01-30T11:55:33;8.30;99.90
6954;DHT22;3516;47.980;8.808;2024-01-30T11:58:01;8.30;99.90
6954;DHT22;3516;47.980;8.808;2024-01-30T12:00:29;8.30;99.90
6954;DHT22;3516;47.980;8.808;2024-01-30T12:02:57;8.20;99.90
6954;DHT22;3516;47.980;8.808;2024-01-30T12:05:26;8.20;99.90
6954;DHT22;3516;47.980;8.808;2024-01-30T12:07:53;8.30;99.90
6954;DHT22;3516;47.980;8.808;2024-01-30T12:10:19;8.30;99.90
6954;DHT22;3516;47.980;8.808;2024-01-30T12:12:47;8.30;99.90
6954;DHT22;3516;47.980;8.808;2024-01-30T12:15:14;8.40;99.90
6954;DHT22;3516;47.980;8.808;2024-01-30T12:17:41;8.50;99.90
6954;DHT22;3516;47.980;8.808;2024-01-30T12:20:10;8.60;99.90
6954;DHT22;3516;47.980;8.808;2024-01-30T12:22:37;8.70;99.90
6954;DHT22;3516;47.980;8.808;2024-01-30T12:25:04;8.90;99.90
6954;DHT22;3516;47.980;8.808;2024-01-30T12:27:31;9.00;99.90
6954;DHT22;3516;47.980;8.808;2024-01-30T12:29:58;9.10;99.90
6954;DHT22;3516;47.980;8.808;2024-01-30T12:32:25;9.10;99.90
6954;DHT22;3516;47.980;8.808;2024-01-30T12:34:54;9.10;99.90
6954;DHT22;3516;47.980;8.808;2024-01-30T12:37:23;9.10;99.90
6954;DHT22;3516;47.980;8.808;2024-01-30T12:39:51;9.20;99.90
6954;DHT22;3516;47.980;8.808;2024-01-30T12:42:18;9.20;99.90
6954;DHT22;3516;47.980;8.808;2024-01-30T12:44:45;9.20;99.90
6954;DHT22;3516;47.980;8.808;2024-01-30T12:47:12;9.30;99.90
6954;DHT22;3516;47.980;8.808;2024-01-30T12:49:38;9.30;99.90
6954;DHT22;3516;47.980;8.808;2024-01-30T12:52:05;9.30;99.90
6954;DHT22;3516;47.980;8.808;2024-01-30T12:54:33;9.40;99.90
6954;DHT22;3516;47.980;8.808;2024-01-30T12:56:59;9.40;99.90
6954;DHT22;3516;47.980;8.808;2024-01-30T12:59:26;9.50;99.90
6954;DHT22;3516;47.980;8.808;2024-01-30T13:01:52;9.60;99.90
6954;DHT22;3516;47.980;8.808;2024-01-30T13:04:19;9.70;99.90
6954;DHT22;3516;47.980;8.808;2024-01-30T13:06:45;9.80;99.90
6954;DHT22;3516;47.980;8.808;2024-01-30T13:09:12;9.80;99.90
6954;DHT22;3516;47.980;8.808;2024-01-30T13:11:40;9.90;99.90
6954;DHT22;3516;47.980;8.808;2024-01-30T13:14:06;10.00;99.90
6954;DHT22;3516;47.980;8.808;2024-01-30T13:16:33;10.00;99.90
6954;DHT22;3516;47.980;8.808;2024-01-30T13:19:00;10.00;99.90
6954;DHT22;3516;47.980;8.808;2024-01-30T13:21:27;10.10;99.90
6954;DHT22;3516;47.980;8.808;2024-01-30T13:23:54;10.20;99.90
6954;DHT22;3516;47.980;8.808;2024-01-30T13:26:20;10.20;99.90
6954;DHT22;3516;47.980;8.808;2024-01-30T13:28:48;10.30;99.90
6954;DHT22;3516;47.980;8.808;2024-01-30T13:31:15;10.30;99.90
6954;DHT22;3516;47.980;8.808;2024-01-30T13:33:42;10.30;99.90
6954;DHT22;3516;47.980;8.808;2024-01-30T13:36:09;10.40;99.90
6954;DHT22;3516;47.980;8.808;2024-01-30T13:38:36;10.40;99.90
6954;DHT22;3516;47.980;8.808;2024-01-30T13:41:03;10.40;99.90
6954;DHT22;3516;47.980;8.808;2024-01-30T13:43:29;10.40;99.90
6954;DHT22;3516;47.980;8.808;2024-01-30T13:45:57;10.30;99.90
6954;DHT22;3516;47.980;8.808;2024-01-30T13:48:24;10.30;99.90
6954;DHT22;3516;47.980;8.808;2024-01-30T13:50:50;10.30;99.90
6954;DHT22;3516;47.980;8.808;2024-01-30T13:53:18;10.30;99.90
6954;DHT22;3516;47.980;8.808;2024-01-30T13:55:44;10.30;99.90
6954;DHT22;3516;47.980;8.808;2024-01-30T13:58:12;10.30;99.90
6954;DHT22;3516;47.980;8.808;2024-01-30T14:00:38;10.30;99.90
6954;DHT22;3516;47.980;8.808;2024-01-30T14:03:06;10.30;99.90
6954;DHT22;3516;47.980;8.808;2024-01-30T14:05:33;10.30;99.90
6954;DHT22;3516;47.980;8.808;2024-01-30T14:08:01;10.40;99.90
6954;DHT22;3516;47.980;8.808;2024-01-30T14:10:28;10.40;99.90
6954;DHT22;3516;47.980;8.808;2024-01-30T14:12:54;10.40;99.90
6954;DHT22;3516;47.980;8.808;2024-01-30T14:15:21;10.40;99.90
6954;DHT22;3516;47.980;8.808;2024-01-30T14:17:49;10.40;99.90
6954;DHT22;3516;47.980;8.808;2024-01-30T14:20:17;10.40;99.90
6954;DHT22;3516;47.980;8.808;2024-01-30T14:22:44;10.30;99.90
6954;DHT22;3516;47.980;8.808;2024-01-30T14:25:11;10.20;99.90
6954;DHT22;3516;47.980;8.808;2024-01-30T14:27:38;10.10;99.90
6954;DHT22;3516;47.980;8.808;2024-01-30T14:30:05;10.00;99.90
6954;DHT22;3516;47.980;8.808;2024-01-30T14:32:31;10.00;99.90
6954;DHT22;3516;47.980;8.808;2024-01-30T14:34:58;9.90;99.90
6954;DHT22;3516;47.980;8.808;2024-01-30T14:37:26;9.80;99.90
6954;DHT22;3516;47.980;8.808;2024-01-30T14:39:55;9.70;99.90
6954;DHT22;3516;47.980;8.808;2024-01-30T14:42:22;9.50;99.90
6954;DHT22;3516;47.980;8.808;2024-01-30T14:44:49;9.40;99.90
6954;DHT22;3516;47.980;8.808;2024-01-30T14:47:16;9.30;99.90
6954;DHT22;3516;47.980;8.808;2024-01-30T14:49:43;9.20;99.90
6954;DHT22;3516;47.980;8.808;2024-01-30T14:52:09;9.10;99.90
6954;DHT22;3516;47.980;8.808;2024-01-30T14:54:38;8.90;99.90
6954;DHT22;3516;47.980;8.808;2024-01-30T14:57:05;8.90;99.90
6954;DHT22;3516;47.980;8.808;2024-01-30T14:59:31;8.70;99.90
6954;DHT22;3516;47.980;8.808;2024-01-30T15:01:59;8.70;99.90
6954;DHT22;3516;47.980;8.808;2024-01-30T15:04:26;8.60;99.90
6954;DHT22;3516;47.980;8.808;2024-01-30T15:06:52;8.50;99.90
6954;DHT22;3516;47.980;8.808;2024-01-30T15:09:19;8.40;99.90
6954;DHT22;3516;47.980;8.808;2024-01-30T15:11:49;8.30;99.90
6954;DHT22;3516;47.980;8.808;2024-01-30T15:14:16;8.30;99.90
6954;DHT22;3516;47.980;8.808;2024-01-30T15:16:43;8.20;99.90
6954;DHT22;3516;47.980;8.808;2024-01-30T15:19:09;8.10;99.90
6954;DHT22;3516;47.980;8.808;2024-01-30T15:21:36;8.00;99.90
6954;DHT22;3516;47.980;8.808;2024-01-30T15:24:03;8.00;99.90
6954;DHT22;3516;47.980;8.808;2024-01-30T15:26:30;7.90;99.90
6954;DHT22;3516;47.980;8.808;2024-01-30T15:28:58;7.80;99.90
6954;DHT22;3516;47.980;8.808;2024-01-30T15:31:25;7.70;99.90
6954;DHT22;3516;47.980;8.808;2024-01-30T15:33:52;7.60;99.90
6954;DHT22;3516;47.980;8.808;2024-01-30T15:36:18;7.60;99.90
6954;DHT22;3516;47.980;8.808;2024-01-30T15:38:45;7.40;99.90
6954;DHT22;3516;47.980;8.808;2024-01-30T15:41:11;7.40;99.90
6954;DHT22;3516;47.980;8.808;2024-01-30T15:43:38;7.30;99.90
6954;DHT22;3516;47.980;8.808;2024-01-30T15:46:05;7.20;99.90
6954;DHT22;3516;47.980;8.808;2024-01-30T15:48:32;7.10;99.90
6954;DHT22;3516;47.980;8.808;2024-01-30T15:50:59;7.00;99.90
6954;DHT22;3516;47.980;8.808;2024-01-30T15:53:25;6.90;99.90
6954;DHT22;3516;47.980;8.808;2024-01-30T15:55:52;6.80;99.90
6954;DHT22;3516;47.980;8.808;2024-01-30T15:58:19;6.70;99.90
6954;DHT22;3516;47.980;8.808;2024-01-30T16:00:45;6.60;99.90
6954;DHT22;3516;47.980;8.808;2024-01-30T16:03:13;6.60;99.90
6954;DHT22;3516;47.980;8.808;2024-01-30T16:05:39;6.50;99.90
6954;DHT22;3516;47.980;8.808;2024-01-30T16:08:06;6.40;99.90
6954;DHT22;3516;47.980;8.808;2024-01-30T16:10:33;6.30;99.90
6954;DHT22;3516;47.980;8.808;2024-01-30T16:12:59;6.30;99.90
6954;DHT22;3516;47.980;8.808;2024-01-30T16:15:26;6.20;99.90
6954;DHT22;3516;47.980;8.808;2024-01-30T16:17:52;6.00;99.90
6954;DHT22;3516;47.980;8.808;2024-01-30T16:20:20;6.00;99.90
6954;DHT22;3516;47.980;8.808;2024-01-30T16:22:46;6.00;99.90
6954;DHT22;3516;47.980;8.808;2024-01-30T16:25:14;5.90;99.90
6954;DHT22;3516;47.980;8.808;2024-01-30T16:27:43;5.80;99.90
6954;DHT22;3516;47.980;8.808;2024-01-30T16:30:10;5.80;99.90
6954;DHT22;3516;47.980;8.808;2024-01-30T16:32:36;5.70;99.90
6954;DHT22;3516;47.980;8.808;2024-01-30T16:35:03;5.70;99.90
6954;DHT22;3516;47.980;8.808;2024-01-30T16:37:31;5.60;99.90
6954;DHT22;3516;47.980;8.808;2024-01-30T16:39:57;5.50;99.90
6954;DHT22;3516;47.980;8.808;2024-01-30T16:42:24;5.50;99.90
6954;DHT22;3516;47.980;8.808;2024-01-30T16:44:50;5.40;99.90
6954;DHT22;3516;47.980;8.808;2024-01-30T16:47:17;5.30;99.90
6954;DHT22;3516;47.980;8.808;2024-01-30T16:49:46;5.30;99.90
6954;DHT22;3516;47.980;8.808;2024-01-30T16:52:12;5.30;99.90
6954;DHT22;3516;47.980;8.808;2024-01-30T16:54:40;5.20;99.90
6954;DHT22;3516;47.980;8.808;2024-01-30T16:57:08;5.20;99.90
6954;DHT22;3516;47.980;8.808;2024-01-30T16:59:37;5.10;99.90
6954;DHT22;3516;47.980;8.808;2024-01-30T17:02:03;5.10;99.90
6954;DHT22;3516;47.980;8.808;2024-01-30T17:04:30;5.00;99.90
6954;DHT22;3516;47.980;8.808;2024-01-30T17:06:58;5.00;99.90
6954;DHT22;3516;47.980;8.808;2024-01-30T17:09:24;5.00;99.90
6954;DHT22;3516;47.980;8.808;2024-01-30T17:11:52;4.90;99.90
6954;DHT22;3516;47.980;8.808;2024-01-30T17:14:19;4.90;99.90
6954;DHT22;3516;47.980;8.808;2024-01-30T17:16:45;4.90;99.90
6954;DHT22;3516;47.980;8.808;2024-01-30T17:19:13;4.90;99.90
6954;DHT22;3516;47.980;8.808;2024-01-30T17:21:40;4.80;99.90
6954;DHT22;3516;47.980;8.808;2024-01-30T17:24:06;4.80;99.90
6954;DHT22;3516;47.980;8.808;2024-01-30T17:26:33;4.80;99.90
6954;DHT22;3516;47.980;8.808;2024-01-30T17:29:01;4.80;99.90
6954;DHT22;3516;47.980;8.808;2024-01-30T17:31:28;4.70;99.90
6954;DHT22;3516;47.980;8.808;2024-01-30T17:33:54;4.70;99.90
6954;DHT22;3516;47.980;8.808;2024-01-30T17:36:21;4.70;99.90
6954;DHT22;3516;47.980;8.808;2024-01-30T17:38:48;4.60;99.90
6954;DHT22;3516;47.980;8.808;2024-01-30T17:41:14;4.60;99.90
6954;DHT22;3516;47.980;8.808;2024-01-30T17:43:41;4.60;99.90
6954;DHT22;3516;47.980;8.808;2024-01-30T17:46:09;4.60;99.90
6954;DHT22;3516;47.980;8.808;2024-01-30T17:48:35;4.50;99.90
6954;DHT22;3516;47.980;8.808;2024-01-30T17:51:02;4.50;99.90
6954;DHT22;3516;47.980;8.808;2024-01-30T17:53:28;4.50;99.90
6954;DHT22;3516;47.980;8.808;2024-01-30T17:55:55;4.40;99.90
6954;DHT22;3516;47.980;8.808;2024-01-30T17:58:25;4.40;99.90
6954;DHT22;3516;47.980;8.808;2024-01-30T18:00:52;4.40;99.90
6954;DHT22;3516;47.980;8.808;2024-01-30T18:03:20;4.40;99.90
6954;DHT22;3516;47.980;8.808;2024-01-30T18:05:46;4.40;99.90
6954;DHT22;3516;47.980;8.808;2024-01-30T18:08:13;4.40;99.90
6954;DHT22;3516;47.980;8.808;2024-01-30T18:10:40;4.30;99.90
6954;DHT22;3516;47.980;8.808;2024-01-30T18:13:06;4.30;99.90
6954;DHT22;3516;47.980;8.808;2024-01-30T18:15:34;4.30;99.90
6954;DHT22;3516;47.980;8.808;2024-01-30T18:18:01;4.30;99.90
6954;DHT22;3516;47.980;8.808;2024-01-30T18:20:28;4.20;99.90
6954;DHT22;3516;47.980;8.808;2024-01-30T18:22:55;4.20;99.90
6954;DHT22;3516;47.980;8.808;2024-01-30T18:25:21;4.20;99.90
6954;DHT22;3516;47.980;8.808;2024-01-30T18:27:48;4.20;99.90
6954;DHT22;3516;47.980;8.808;2024-01-30T18:30:15;4.20;99.90
6954;DHT22;3516;47.980;8.808;2024-01-30T18:32:42;4.20;99.90
6954;DHT22;3516;47.980;8.808;2024-01-30T18:35:09;4.20;99.90
6954;DHT22;3516;47.980;8.808;2024-01-30T18:37:37;4.20;99.90
6954;DHT22;3516;47.980;8.808;2024-01-30T18:40:03;4.20;99.90
6954;DHT22;3516;47.980;8.808;2024-01-30T18:42:30;4.20;99.90
6954;DHT22;3516;47.980;8.808;2024-01-30T18:44:57;4.20;99.90
6954;DHT22;3516;47.980;8.808;2024-01-30T18:47:24;4.20;99.90
6954;DHT22;3516;47.980;8.808;2024-01-30T18:49:50;4.20;99.90
6954;DHT22;3516;47.980;8.808;2024-01-30T18:52:18;4.20;99.90
6954;DHT22;3516;47.980;8.808;2024-01-30T18:54:46;4.20;99.90
6954;DHT22;3516;47.980;8.808;2024-01-30T18:57:12;4.30;99.90
6954;DHT22;3516;47.980;8.808;2024-01-30T18:59:39;4.30;99.90
6954;DHT22;3516;47.980;8.808;2024-01-30T19:02:05;4.30;99.90
6954;DHT22;3516;47.980;8.808;2024-01-30T19:04:32;4.30;99.90
6954;DHT22;3516;47.980;8.808;2024-01-30T19:06:59;4.30;99.90
6954;DHT22;3516;47.980;8.808;2024-01-30T19:09:25;4.30;99.90
6954;DHT22;3516;47.980;8.808;2024-01-30T19:11:53;4.30;99.90
6954;DHT22;3516;47.980;8.808;2024-01-30T19:14:20;4.30;99.90
6954;DHT22;3516;47.980;8.808;2024-01-30T19:16:46;4.30;99.90
6954;DHT22;3516;47.980;8.808;2024-01-30T19:19:13;4.30;99.90
6954;DHT22;3516;47.980;8.808;2024-01-30T19:21:40;4.40;99.90
6954;DHT22;3516;47.980;8.808;2024-01-30T19:24:06;4.40;99.90
6954;DHT22;3516;47.980;8.808;2024-01-30T19:26:33;4.40;99.90
6954;DHT22;3516;47.980;8.808;2024-01-30T19:29:01;4.30;99.90
6954;DHT22;3516;47.980;8.808;2024-01-30T19:31:28;4.40;99.90
6954;DHT22;3516;47.980;8.808;2024-01-30T19:33:54;4.40;99.90
6954;DHT22;3516;47.980;8.808;2024-01-30T19:36:21;4.40;99.90
6954;DHT22;3516;47.980;8.808;2024-01-30T19:38:48;4.40;99.90
6954;DHT22;3516;47.980;8.808;2024-01-30T19:41:14;4.40;99.90
6954;DHT22;3516;47.980;8.808;2024-01-30T19:43:41;4.30;99.90
6954;DHT22;3516;47.980;8.808;2024-01-30T19:46:10;4.40;99.90
6954;DHT22;3516;47.980;8.808;2024-01-30T19:48:37;4.40;99.90
6954;DHT22;3516;47.980;8.808;2024-01-30T19:51:03;4.40;99.90
6954;DHT22;3516;47.980;8.808;2024-01-30T19:53:30;4.40;99.90
6954;DHT22;3516;47.980;8.808;2024-01-30T19:55:57;4.30;99.90
6954;DHT22;3516;47.980;8.808;2024-01-30T19:58:24;4.30;99.90
6954;DHT22;3516;47.980;8.808;2024-01-30T20:00:50;4.30;99.90
6954;DHT22;3516;47.980;8.808;2024-01-30T20:03:19;4.30;99.90
6954;DHT22;3516;47.980;8.808;2024-01-30T20:05:45;4.30;99.90
6954;DHT22;3516;47.980;8.808;2024-01-30T20:08:13;4.30;99.90
6954;DHT22;3516;47.980;8.808;2024-01-30T20:10:41;4.20;99.90
6954;DHT22;3516;47.980;8.808;2024-01-30T20:13:07;4.20;99.90
6954;DHT22;3516;47.980;8.808;2024-01-30T20:15:34;4.20;99.90
6954;DHT22;3516;47.980;8.808;2024-01-30T20:18:00;4.10;99.90
6954;DHT22;3516;47.980;8.808;2024-01-30T20:20:28;4.10;99.90
6954;DHT22;3516;47.980;8.808;2024-01-30T20:22:54;4.00;99.90
6954;DHT22;3516;47.980;8.808;2024-01-30T20:25:21;4.00;99.90
6954;DHT22;3516;47.980;8.808;2024-01-30T20:27:48;3.90;99.90
6954;DHT22;3516;47.980;8.808;2024-01-30T20:30:14;3.90;99.90
6954;DHT22;3516;47.980;8.808;2024-01-30T20:32:42;3.80;99.90
6954;DHT22;3516;47.980;8.808;2024-01-30T20:35:08;3.80;99.90
6954;DHT22;3516;47.980;8.808;2024-01-30T20:37:37;3.70;99.90
6954;DHT22;3516;47.980;8.808;2024-01-30T20:40:04;3.60;99.90
6954;DHT22;3516;47.980;8.808;2024-01-30T20:42:31;3.60;99.90
6954;DHT22;3516;47.980;8.808;2024-01-30T20:44:57;3.50;99.90
6954;DHT22;3516;47.980;8.808;2024-01-30T20:47:24;3.40;99.90
6954;DHT22;3516;47.980;8.808;2024-01-30T20:49:51;3.40;99.90
6954;DHT22;3516;47.980;8.808;2024-01-30T20:52:17;3.30;99.90
6954;DHT22;3516;47.980;8.808;2024-01-30T20:54:45;3.30;99.90
6954;DHT22;3516;47.980;8.808;2024-01-30T20:57:12;3.20;99.90
6954;DHT22;3516;47.980;8.808;2024-01-30T20:59:38;3.10;99.90
6954;DHT22;3516;47.980;8.808;2024-01-30T21:02:05;3.00;99.90
6954;DHT22;3516;47.980;8.808;2024-01-30T21:04:31;3.00;99.90